Decoded Metar for UIUU (ULAN-UDE in RUSSIA) (IATA:UUD) | Meteo·Mobile Aviation Weather
aviador You're here:

UIUU Decoded Metar

ULAN-UDE in RUSSIA
Report Time2018-09-18 14:30:00
UTC Time2018-09-18 15:09:51
Flight Rules vfr VFR
Wind220° at 4 kt
W.Decomp.*RWY 26: 3.3 kt HW 2.3 kt LCW
RWY 14: 0.3 kt HW 4.0 kt RCW
W.Rank220° ranks 25
Current wind is below 220° avg. (5.4)
Visibility9999 m
Phenomena:N/A
Clouds:Few 046 Hf
Expected CloudBase > 2,000 ft AGL from Temp-Dew spread
CeilingNone
Temp11°C (ISA -1)
Dew Point06°C (72% RH)
AAT8.7°C
QNH1013 hPa
Density Alt1,745 ft
Elevation1,690 ft
Report Wrong Elevation
Raw Report
METAR UIUU 181430Z 22002MPS 190V270 9999 FEW046 11/06 Q1013 R26/60D
NOSIG RMK QFE715/0954=

Extra information for UIUU:More info

Metar Taf Metar & Taf Last 4 Metars F.Rules Stats Wind Profile Meteogram Temp Stats Airport Information Weather charts Add Link Nearby VenuesMetar ALERT Operation Metar Decoded Social comments